Startpagina
METAR-TAF:

METAR-TAF

Vliegvelden :

Militair vliegvled

Landivisiau, Frankrijk

breedte: 48-31N, lengte: 004-09W, hoogte: 106 m

Actueel weer

Dit bericht is 15 minuten geleden gemaakt, om 17:30 UTC
Wind 8 kt uit het westen
Temperatuur 19°C
Vochtigheid 78%
Druk 1014 hPa
Zicht 10 km of meer
Weinig wolken op 1500 ft
Verspreide wolken op 2300 ft
Gebroken wolken op 4100 ft

METAR: LFRJ 261730Z AUTO 28008KT 9999 FEW015 SCT023 BKN041 19/15 Q1014

Tijdstip: 19:45 (17:45 UTC)

Verwachting

Dit bericht is 6 uur en het 45 minuten geleden gemaakt, om 11:00 UTC
Verwachting geldig van 26 om 12 UTC tot 26 om 21 UTC
Wind 8 kt uit het westen
Zicht 10 km of meer
Gebroken wolken op 2500 ft
Tijdelijke
van 26 om 18 UTC tot 26 om 21 UTC
Gebroken wolken op 1400 ft

TAF: LFRJ 261100Z 2612/2621 27008KT 9999 BKN025 TEMPO 2618/2621 BKN014

Waarnemingen en weersverwachtingen van meer dan 4000 vliegvelden (METAR en TAF).

De beschikbare stations zijn de gele en rode punten op de kaart.

Ga met uw muis naar het station om de naam te zien.

Klik dan om waarnemingen en weersverwachtingen te zien.

kaart wijzigen: klik op de groene knoppen met een zwart kruis om in te zoomen, op de groene knop met een streepje om uit te zoomen of op de groene pijlen voor aangrenzende kaarten.


METAR-TAF: